Hovedside
METAR-TAF:

METAR-TAF

Lufthavner :

David, Panama

breddegrad: 08-24N, lengdegrad: 082-25W, høyde over havet: 29 m

Gjeldene værobservasjon

Denne rapporten ble laget for 49 minutter siden, klokken 11:00 UTC
Vind 2 kt fra skiftende retning
Temperatur 22°C
Luftfuktighet 94%
Trykk 1011 hPa
Sikt 10 km eller mer
Få skyer i en høyde av 1600 ft

METAR: MPDA 261100Z VRB02KT 9999 FEW016 22/21 Q1011

Tid: 06:49 (11:49 UTC)

Varsel

Denne rapporten ble laget for 49 minutter siden, klokken 11:00 UTC
Varsel gyldig fra 26. klokken 12 UTC til 26. klokken 24 UTC
Vind 6 kt fra Nordøst
Sikt 10 km eller mer
Få skyer i en høyde av 1800 ft
Midlertidig
fra 26. klokken 12 UTC til 26. klokken 14 UTC
Vind 4 kt fra Nord-nordøst
Midlertidig
fra 26. klokken 18 UTC til 26. klokken 22 UTC
Vind 15 kt fra Nordøst

TAF: MPDA 261100Z 2612/2624 04006KT 9999 FEW018 TEMPO 2612/2614 03004KT TEMPO 2618/2622 05015KT

Værobservasjoner og værvarsel for over 4000 flyplasser (METAR- og TAF-rapporter).

Tilgjengelige stasjoner er representert av de røde og gule prikkene på kartet.

Hold musepekeren over prikken for å se navnet på stasjonen.

Klikk så for å se værobservasjoner og -varsler.

For å forandre kartet kan du klikke på den grønne knappen med svart kryss for å zoome inn, på den grønne knappen med strek for å zoome ut, eller på de grønne pilene for å se tilstøtende kart.


METAR-TAF: